createdAt,value
2023-03-22T00:00:17.600Z,11.86
2023-03-22T00:02:46.145Z,11.97
2023-03-22T00:05:14.414Z,11.84
2023-03-22T00:08:05.716Z,11.75
2023-03-22T00:10:37.475Z,11.68
2023-03-22T00:13:07.092Z,11.48
2023-03-22T00:15:35.286Z,11.33
2023-03-22T00:19:09.454Z,11.29
2023-03-22T00:21:37.691Z,11.17
2023-03-22T00:24:06.367Z,11.08
2023-03-22T00:26:35.104Z,11.10
2023-03-22T00:29:03.103Z,11.17
2023-03-22T00:31:32.287Z,11.12
2023-03-22T00:34:00.758Z,10.98
2023-03-22T00:36:28.934Z,10.91
2023-03-22T00:38:58.892Z,10.91
2023-03-22T00:41:27.071Z,10.89
2023-03-22T00:43:56.860Z,10.86
2023-03-22T00:46:26.118Z,10.78
2023-03-22T00:48:54.446Z,10.69
2023-03-22T00:51:23.288Z,10.61
2023-03-22T00:53:54.036Z,10.70
2023-03-22T00:56:25.570Z,10.81
2023-03-22T00:59:01.761Z,10.96
2023-03-22T01:01:32.074Z,11.04
2023-03-22T01:04:00.883Z,11.05
2023-03-22T01:06:29.506Z,11.04
2023-03-22T01:08:57.493Z,11.02
2023-03-22T01:11:26.476Z,10.94
2023-03-22T01:13:55.806Z,10.87
2023-03-22T01:16:23.876Z,10.90
2023-03-22T01:18:52.292Z,10.81
2023-03-22T01:21:20.727Z,10.72
2023-03-22T01:23:50.953Z,10.71
2023-03-22T01:26:19.329Z,10.71
2023-03-22T01:28:47.361Z,10.60
2023-03-22T01:31:15.386Z,10.55
2023-03-22T01:33:43.451Z,10.53
2023-03-22T01:36:12.295Z,10.63
2023-03-22T01:38:40.514Z,10.71
2023-03-22T01:41:08.407Z,10.64
2023-03-22T01:43:39.817Z,10.54
2023-03-22T01:46:08.461Z,10.57
2023-03-22T01:48:42.316Z,10.65
2023-03-22T01:51:13.689Z,10.54
2023-03-22T01:54:04.387Z,10.33
2023-03-22T01:56:35.957Z,10.20
2023-03-22T01:59:04.386Z,10.15
2023-03-22T02:01:47.323Z,10.20
2023-03-22T02:04:23.462Z,10.42
2023-03-22T02:06:54.149Z,10.62
2023-03-22T02:09:22.216Z,10.80
2023-03-22T02:11:59.631Z,10.88
2023-03-22T02:14:43.556Z,10.85
2023-03-22T02:18:06.485Z,10.63
2023-03-22T02:21:17.513Z,10.46
2023-03-22T02:24:15.002Z,10.29
2023-03-22T02:26:51.040Z,10.49
2023-03-22T02:29:36.759Z,10.63
2023-03-22T02:32:32.199Z,10.51
2023-03-22T02:35:04.074Z,10.36
2023-03-22T02:37:41.834Z,10.22
2023-03-22T02:40:27.930Z,10.11
2023-03-22T02:42:59.163Z,10.08
2023-03-22T02:45:32.158Z,10.16
2023-03-22T02:50:29.357Z,10.06
2023-03-22T02:53:05.340Z,10.01
2023-03-22T02:55:40.586Z,9.94
2023-03-22T02:58:24.077Z,9.83
2023-03-22T03:00:55.991Z,9.73
2023-03-22T03:03:25.633Z,9.80
2023-03-22T03:05:57.004Z,9.89
2023-03-22T03:08:25.200Z,9.88
2023-03-22T03:10:57.610Z,9.88
2023-03-22T03:13:26.267Z,9.83
2023-03-22T03:15:58.709Z,9.75
2023-03-22T03:18:46.988Z,9.67
2023-03-22T03:21:23.842Z,9.75
2023-03-22T03:23:57.912Z,9.90
2023-03-22T03:26:31.932Z,9.98
2023-03-22T03:29:22.091Z,10.02
2023-03-22T03:31:56.764Z,10.03
2023-03-22T03:34:34.391Z,10.10
2023-03-22T03:37:08.614Z,10.03
2023-03-22T03:39:39.783Z,9.90
2023-03-22T03:42:07.998Z,9.83
2023-03-22T03:44:36.761Z,9.86
2023-03-22T03:47:07.193Z,9.98
2023-03-22T03:49:35.196Z,10.08
2023-03-22T03:52:04.681Z,10.03
2023-03-22T03:54:32.683Z,9.97
2023-03-22T03:57:05.653Z,9.93
2023-03-22T04:02:05.920Z,10.05
2023-03-22T04:04:38.465Z,10.11
2023-03-22T04:07:50.031Z,10.10
2023-03-22T04:10:18.214Z,10.02
2023-03-22T04:12:46.870Z,9.95
2023-03-22T04:15:17.723Z,9.87
2023-03-22T04:17:48.700Z,9.89
2023-03-22T04:20:17.816Z,9.86
2023-03-22T04:22:48.389Z,9.90
2023-03-22T04:25:19.197Z,10.01
2023-03-22T04:28:00.867Z,10.11
2023-03-22T04:30:31.001Z,10.20
2023-03-22T04:33:07.273Z,10.28
2023-03-22T04:35:56.781Z,10.46
2023-03-22T04:38:28.146Z,10.69
2023-03-22T04:40:57.908Z,10.77
2023-03-22T04:43:47.133Z,10.88
2023-03-22T04:46:17.136Z,10.93
2023-03-22T04:48:49.612Z,10.97
2023-03-22T04:51:18.062Z,10.87
2023-03-22T04:53:58.715Z,10.75
2023-03-22T04:56:26.858Z,10.71
2023-03-22T04:58:55.767Z,10.75
2023-03-22T05:01:23.809Z,10.79
2023-03-22T05:03:58.950Z,10.74
2023-03-22T05:06:28.003Z,10.80
2023-03-22T05:09:08.180Z,11.04
2023-03-22T05:11:36.970Z,11.18
2023-03-22T05:14:14.554Z,11.21
2023-03-22T05:16:47.097Z,11.15
2023-03-22T05:19:16.973Z,11.09
2023-03-22T05:21:49.731Z,11.10
2023-03-22T05:24:19.140Z,11.12
2023-03-22T05:26:53.949Z,11.18
2023-03-22T05:29:25.952Z,11.26
2023-03-22T05:32:09.976Z,11.35
2023-03-22T05:34:38.966Z,11.41
2023-03-22T05:37:21.225Z,11.42
2023-03-22T05:39:55.290Z,11.45
2023-03-22T05:42:28.200Z,11.56
2023-03-22T05:44:56.443Z,11.63
2023-03-22T05:47:25.257Z,11.75
2023-03-22T05:50:12.525Z,11.82
2023-03-22T05:52:42.915Z,11.81
2023-03-22T05:55:40.860Z,11.77
2023-03-22T05:58:19.213Z,11.79
2023-03-22T06:00:51.469Z,11.82
2023-03-22T06:03:23.576Z,11.87
2023-03-22T06:05:56.864Z,11.94
2023-03-22T06:08:38.226Z,11.93
2023-03-22T06:11:10.924Z,11.96
2023-03-22T06:13:38.897Z,11.97
2023-03-22T06:16:08.392Z,12.01
2023-03-22T06:18:38.923Z,12.04
2023-03-22T06:21:11.627Z,11.98
2023-03-22T06:23:41.495Z,11.89
2023-03-22T06:26:13.805Z,11.90
2023-03-22T06:28:44.016Z,11.96
2023-03-22T06:31:12.773Z,11.97
2023-03-22T06:33:46.846Z,11.94
2023-03-22T06:36:22.799Z,12.01
2023-03-22T06:39:09.356Z,12.15
2023-03-22T06:41:39.206Z,12.21
2023-03-22T06:44:07.139Z,12.19
2023-03-22T06:46:53.807Z,12.20
2023-03-22T06:49:44.747Z,12.21
2023-03-22T06:52:19.131Z,12.34
2023-03-22T06:54:47.778Z,12.52
2023-03-22T06:57:16.008Z,12.58
2023-03-22T06:59:44.579Z,12.65
2023-03-22T07:02:14.760Z,12.80
2023-03-22T07:04:52.104Z,12.98
2023-03-22T07:07:23.306Z,13.11
2023-03-22T07:09:53.933Z,13.07
2023-03-22T07:12:22.887Z,13.16
2023-03-22T07:14:51.231Z,13.26
2023-03-22T07:17:31.896Z,13.32
2023-03-22T07:20:01.722Z,13.53
2023-03-22T07:22:30.980Z,13.73
2023-03-22T07:25:02.208Z,13.77
2023-03-22T07:27:51.840Z,13.94
2023-03-22T07:30:22.984Z,14.12
2023-03-22T07:32:51.340Z,14.38
2023-03-22T07:35:19.485Z,14.67
2023-03-22T07:37:48.919Z,14.79
2023-03-22T07:40:27.302Z,14.67
2023-03-22T07:42:56.171Z,14.58
2023-03-22T07:45:52.706Z,14.60
2023-03-22T07:48:55.699Z,14.72
2023-03-22T07:51:41.742Z,15.04
2023-03-22T07:54:09.897Z,15.44
2023-03-22T07:56:38.488Z,15.79
2023-03-22T07:59:07.326Z,15.91
2023-03-22T08:01:35.407Z,15.93
2023-03-22T08:04:10.691Z,15.97
2023-03-22T08:07:00.735Z,16.25
2023-03-22T08:09:28.936Z,16.52
2023-03-22T08:12:02.798Z,17.12
2023-03-22T08:14:36.562Z,17.99
2023-03-22T08:17:07.802Z,18.64
2023-03-22T08:19:37.022Z,19.04
2023-03-22T08:22:06.942Z,19.33
2023-03-22T08:24:54.504Z,19.62
2023-03-22T08:27:29.175Z,19.65
2023-03-22T08:29:58.973Z,20.03
2023-03-22T08:32:28.634Z,20.63
2023-03-22T08:34:59.318Z,21.08
2023-03-22T08:37:27.976Z,21.37
2023-03-22T08:39:56.612Z,21.37
2023-03-22T08:42:39.166Z,21.29
2023-03-22T08:45:10.388Z,21.12
2023-03-22T08:47:44.423Z,21.24
2023-03-22T08:50:13.543Z,21.36
2023-03-22T08:52:54.212Z,21.51
2023-03-22T08:55:31.657Z,21.77
2023-03-22T08:58:20.073Z,21.98
2023-03-22T09:01:18.878Z,22.03
2023-03-22T09:04:05.834Z,22.04
2023-03-22T09:06:34.398Z,22.00
2023-03-22T09:09:03.821Z,21.68
2023-03-22T09:11:35.582Z,21.36
2023-03-22T09:14:04.123Z,20.91
2023-03-22T09:16:38.825Z,20.41
2023-03-22T09:19:07.782Z,20.07
2023-03-22T09:21:37.896Z,19.82
2023-03-22T09:24:15.053Z,19.73
2023-03-22T09:26:52.032Z,19.95
2023-03-22T09:29:21.158Z,20.29
2023-03-22T09:31:49.981Z,20.85
2023-03-22T09:34:22.220Z,21.33
2023-03-22T09:36:52.888Z,21.67
2023-03-22T09:39:25.917Z,21.82
2023-03-22T09:42:00.715Z,21.85
2023-03-22T09:44:41.604Z,21.77
2023-03-22T09:47:19.312Z,21.49
2023-03-22T09:49:53.839Z,21.19
2023-03-22T09:52:22.673Z,20.88
2023-03-22T09:54:53.075Z,20.53
2023-03-22T09:57:34.887Z,20.18
2023-03-22T10:00:30.829Z,19.81
2023-03-22T10:03:05.195Z,19.57
2023-03-22T10:06:24.740Z,19.32
2023-03-22T10:09:15.975Z,19.22
2023-03-22T10:11:46.965Z,19.02
2023-03-22T10:14:25.944Z,18.92
2023-03-22T10:16:56.483Z,18.94
2023-03-22T10:19:33.303Z,18.89
2023-03-22T10:22:04.093Z,18.95
2023-03-22T10:24:34.008Z,19.09
2023-03-22T10:27:02.141Z,19.11
2023-03-22T10:29:38.196Z,18.95
2023-03-22T10:32:14.187Z,18.88
2023-03-22T10:34:44.030Z,19.04
2023-03-22T10:37:24.969Z,18.89
2023-03-22T10:39:54.717Z,18.77
2023-03-22T10:42:25.182Z,18.81
2023-03-22T10:44:56.162Z,18.89
2023-03-22T10:47:36.468Z,18.89
2023-03-22T10:50:06.654Z,18.89
2023-03-22T10:52:45.017Z,19.07
2023-03-22T10:55:13.763Z,19.22
2023-03-22T10:57:43.214Z,19.37
2023-03-22T11:00:15.060Z,19.64
2023-03-22T11:02:47.348Z,20.16
2023-03-22T11:05:24.361Z,20.51
2023-03-22T11:07:53.401Z,20.64
2023-03-22T11:10:24.064Z,20.57
2023-03-22T11:13:11.823Z,20.32
2023-03-22T11:15:42.396Z,19.98
2023-03-22T11:18:15.816Z,19.77
2023-03-22T11:20:54.345Z,19.57
2023-03-22T11:23:24.124Z,19.33
2023-03-22T11:25:56.331Z,19.20
2023-03-22T11:28:47.888Z,19.34
2023-03-22T11:31:17.632Z,19.75
2023-03-22T11:34:00.992Z,20.18
2023-03-22T11:36:30.441Z,20.36
2023-03-22T11:38:59.894Z,20.47
2023-03-22T11:41:30.001Z,20.44
2023-03-22T11:44:01.290Z,20.35
2023-03-22T11:46:30.504Z,20.60
2023-03-22T11:49:01.463Z,20.73
2023-03-22T11:51:40.064Z,20.85
2023-03-22T11:54:10.102Z,21.03
2023-03-22T11:56:43.756Z,21.26
2023-03-22T11:59:24.995Z,21.49
2023-03-22T12:02:06.652Z,21.48
2023-03-22T12:04:36.403Z,21.42
2023-03-22T12:07:09.735Z,21.31
2023-03-22T12:09:48.309Z,21.08
2023-03-22T12:12:19.811Z,20.58
2023-03-22T12:15:16.125Z,20.18
2023-03-22T12:18:23.174Z,19.93
2023-03-22T12:20:54.725Z,19.54
2023-03-22T12:23:28.642Z,19.33
2023-03-22T12:25:57.972Z,19.22
2023-03-22T12:28:40.579Z,19.09
2023-03-22T12:31:21.383Z,18.74
2023-03-22T12:33:54.489Z,18.46
2023-03-22T12:36:35.445Z,18.35
2023-03-22T12:39:03.766Z,18.39
2023-03-22T12:41:36.505Z,18.62
2023-03-22T12:44:06.096Z,18.94
2023-03-22T12:46:38.709Z,19.12
2023-03-22T12:49:16.330Z,19.29
2023-03-22T12:51:49.241Z,19.40
2023-03-22T12:54:18.940Z,19.43
2023-03-22T12:56:46.869Z,19.41
2023-03-22T12:59:20.292Z,19.26
2023-03-22T13:01:53.790Z,19.05
2023-03-22T13:04:43.422Z,18.85
2023-03-22T13:07:20.425Z,18.60
2023-03-22T13:09:50.092Z,18.41
2023-03-22T13:12:24.645Z,18.29
2023-03-22T13:14:58.087Z,18.21
2023-03-22T13:17:27.570Z,18.07
2023-03-22T13:20:06.934Z,17.91
2023-03-22T13:22:38.158Z,17.87
2023-03-22T13:25:13.271Z,17.85
2023-03-22T13:27:52.752Z,17.81
2023-03-22T13:30:25.312Z,17.77
2023-03-22T13:33:03.848Z,17.78
2023-03-22T13:36:13.948Z,17.74
2023-03-22T13:38:42.791Z,17.59
2023-03-22T13:41:22.289Z,17.23
2023-03-22T13:43:51.724Z,17.05
2023-03-22T13:46:22.757Z,16.97
2023-03-22T13:49:00.395Z,16.82
2023-03-22T13:51:33.587Z,16.64
2023-03-22T13:54:06.350Z,16.47
2023-03-22T13:56:52.632Z,16.31
2023-03-22T13:59:29.669Z,16.22
2023-03-22T14:02:04.555Z,16.09
2023-03-22T14:04:56.910Z,15.94
2023-03-22T14:07:44.431Z,15.86
2023-03-22T14:10:26.199Z,15.83
2023-03-22T14:12:56.047Z,15.74
2023-03-22T14:15:28.717Z,15.80
2023-03-22T14:18:03.099Z,15.84
2023-03-22T14:20:34.733Z,15.92
